Time;durP1;ratioP1;P1;durP2;ratioP2;P2;SDS_P1;SDS_P2;PMS_P1;PMS_P2;Temp;Humidity;BMP_temperature;BMP_pressure;BME280_temperature;BME280_humidity;BME280_pressure;Samples;Min_cycle;Max_cycle;Signal;HPM_P1;HPM_P2
2024/02/02 00:02:04;;;;;;;10.37;9.27;;;;;;;8.77;100.00;97171.81;4917464;29;20198;-83
2024/02/02 00:04:31;;;;;;;10.33;9.33;;;;;;;8.75;100.00;97167.75;4919047;29;20239;-84
2024/02/02 00:06:57;;;;;;;10.00;9.03;;;;;;;8.74;100.00;97160.97;4919504;29;20214;-84
2024/02/02 00:09:24;;;;;;;10.40;9.40;;;;;;;8.70;100.00;97160.41;4919261;29;20205;-83
2024/02/02 00:11:51;;;;;;;10.10;9.17;;;;;;;8.74;100.00;97161.78;4919491;29;20209;-83
2024/02/02 00:14:18;;;;;;;10.60;9.50;;;;;;;8.73;100.00;97156.78;4917863;29;20528;-85
2024/02/02 00:16:45;;;;;;;9.50;8.40;;;;;;;8.63;100.00;97149.03;4917932;29;20809;-83
2024/02/02 00:19:11;;;;;;;9.87;8.93;;;;;;;8.58;100.00;97139.13;4919008;29;20222;-84
2024/02/02 00:21:38;;;;;;;9.13;8.23;;;;;;;8.54;100.00;97137.75;4926481;29;20249;-83
2024/02/02 00:24:04;;;;;;;9.97;9.03;;;;;;;8.54;100.00;97145.44;4925908;29;20214;-83
2024/02/02 00:26:31;;;;;;;10.20;9.17;;;;;;;8.49;100.00;97159.59;4919078;29;20607;-84
2024/02/02 00:28:59;;;;;;;9.53;8.53;;;;;;;8.54;100.00;97160.84;4918632;29;20664;-83
2024/02/02 00:31:25;;;;;;;11.17;9.97;;;;;;;8.51;100.00;97166.22;4918581;29;20222;-84
2024/02/02 00:33:52;;;;;;;12.07;10.87;;;;;;;8.42;100.00;97174.69;4916263;29;20209;-84
2024/02/02 00:36:18;;;;;;;11.20;10.10;;;;;;;8.48;100.00;97188.75;4920189;29;20210;-83
2024/02/02 00:38:45;;;;;;;11.60;10.40;;;;;;;8.52;100.00;97185.81;4902110;29;20229;-84
2024/02/02 00:41:11;;;;;;;12.20;10.57;;;;;;;8.56;100.00;97166.69;4919558;29;20723;-84
2024/02/02 00:43:40;;;;;;;13.17;11.87;;;;;;;8.52;100.00;97161.91;4918973;29;20209;-83
2024/02/02 00:46:11;;;;;;;13.30;11.97;;;;;;;8.50;100.00;97156.91;4918619;29;20206;-84
2024/02/02 00:48:38;;;;;;;13.23;11.47;;;;;;;8.34;100.00;97160.84;4918586;29;20206;-83
2024/02/02 00:51:04;;;;;;;12.53;11.33;;;;;;;8.38;100.00;97183.56;4916882;29;20325;-85
2024/02/02 00:53:31;;;;;;;13.67;11.80;;;;;;;8.41;100.00;97178.19;4918950;29;20202;-83
2024/02/02 00:55:57;;;;;;;12.60;11.30;;;;;;;8.43;100.00;97165.25;4919881;29;20209;-82
2024/02/02 00:58:24;;;;;;;12.73;11.43;;;;;;;8.48;100.00;97166.47;4920254;29;20355;-84
2024/02/02 01:00:50;;;;;;;12.93;11.60;;;;;;;8.52;100.00;97152.44;4918066;29;20232;-84
2024/02/02 01:03:18;;;;;;;11.73;10.63;;;;;;;8.51;100.00;97130.28;4918315;29;20202;-83
2024/02/02 01:05:44;;;;;;;12.20;11.00;;;;;;;8.54;99.55;97131.78;4917101;29;20225;-83
2024/02/02 01:08:11;;;;;;;12.60;11.40;;;;;;;8.53;98.96;97128.41;4917978;29;20197;-83
2024/02/02 01:10:37;;;;;;;12.13;10.93;;;;;;;8.55;98.68;97121.41;4918394;29;20222;-84
2024/02/02 01:13:04;;;;;;;12.37;11.07;;;;;;;8.55;98.48;97107.75;4918052;29;20295;-83
2024/02/02 01:15:31;;;;;;;13.70;11.27;;;;;;;8.51;98.23;97112.31;4917948;29;20206;-83
2024/02/02 01:17:57;;;;;;;11.97;10.20;;;;;;;8.51;97.91;97103.81;4935040;29;20230;-84
2024/02/02 01:20:25;;;;;;;12.00;10.00;;;;;;;8.47;97.21;97098.09;4922953;29;20223;-82
2024/02/02 01:22:51;;;;;;;12.17;10.87;;;;;;;8.46;97.35;97103.38;4919137;29;20205;-83
2024/02/02 01:25:18;;;;;;;11.63;10.43;;;;;;;8.45;97.47;97100.00;4917279;29;20218;-82
2024/02/02 01:27:45;;;;;;;11.67;10.00;;;;;;;8.46;96.89;97090.56;4918601;29;20265;-85
2024/02/02 01:30:12;;;;;;;12.77;10.60;;;;;;;8.41;96.31;97080.66;4916737;29;20237;-85
2024/02/02 01:32:38;;;;;;;11.63;10.33;;;;;;;8.36;95.92;97074.28;4917200;29;20632;-85
2024/02/02 01:35:06;;;;;;;11.03;9.60;;;;;;;8.28;95.49;97059.47;4898338;29;20542;-85
2024/02/02 01:37:33;;;;;;;11.00;9.90;;;;;;;8.31;96.00;97069.47;4898558;29;20207;-86
2024/02/02 01:40:00;;;;;;;11.40;10.20;;;;;;;8.36;95.31;97064.81;4913250;29;20636;-84
2024/02/02 01:42:26;;;;;;;11.67;10.13;;;;;;;8.36;94.24;97041.72;4916802;29;20221;-83
2024/02/02 01:44:53;;;;;;;10.50;9.40;;;;;;;8.38;94.32;97039.84;4916816;29;20213;-82
2024/02/02 01:47:19;;;;;;;10.57;9.53;;;;;;;8.40;94.25;97040.53;4917377;29;20210;-84
2024/02/02 01:49:46;;;;;;;11.63;10.40;;;;;;;8.41;94.36;97044.72;4917354;29;20218;-83
2024/02/02 01:52:12;;;;;;;10.87;9.87;;;;;;;8.42;93.86;97035.28;4916655;29;20213;-83
2024/02/02 01:54:40;;;;;;;11.63;10.43;;;;;;;8.37;92.82;97025.38;4915452;29;20202;-84
2024/02/02 01:57:07;;;;;;;11.80;9.90;;;;;;;8.36;93.20;97030.63;4918136;29;20213;-83
2024/02/02 01:59:34;;;;;;;11.37;10.07;;;;;;;8.29;93.08;97031.09;4917207;29;20222;-85
2024/02/02 02:02:00;;;;;;;11.03;9.87;;;;;;;8.34;93.23;97037.66;4917319;29;20206;-83
2024/02/02 02:04:27;;;;;;;11.17;10.00;;;;;;;8.34;92.65;97028.19;4916639;29;20208;-83
2024/02/02 02:06:53;;;;;;;11.50;10.27;;;;;;;8.35;92.35;97024.69;4916500;29;20591;-83
2024/02/02 02:09:20;;;;;;;11.30;10.13;;;;;;;8.33;92.26;97018.88;4916932;29;20217;-83
2024/02/02 02:11:47;;;;;;;12.40;10.23;;;;;;;8.23;92.47;97011.09;4914059;29;20226;-83
2024/02/02 02:14:14;;;;;;;11.00;9.83;;;;;;;8.21;92.58;97002.72;4916060;29;20202;-84
2024/02/02 02:16:42;;;;;;;10.83;9.83;;;;;;;8.22;92.48;97000.97;4917206;29;20217;-83
2024/02/02 02:19:13;;;;;;;11.60;10.43;;;;;;;8.17;92.04;96985.13;4900043;29;20262;-83
2024/02/02 02:21:41;;;;;;;12.30;10.23;;;;;;;8.18;91.78;96974.75;4924322;29;20236;-84
2024/02/02 02:24:08;;;;;;;12.23;10.33;;;;;;;8.17;91.55;96965.41;4921631;29;20213;-83
2024/02/02 02:26:35;;;;;;;11.63;10.20;;;;;;;8.15;90.78;96958.78;4913824;29;20202;-82
2024/02/02 02:29:02;;;;;;;13.47;9.57;;;;;;;8.17;90.82;96960.28;4915700;29;20308;-85
2024/02/02 02:31:29;;;;;;;10.20;9.10;;;;;;;8.18;89.75;96938.00;4896762;29;20230;-84
2024/02/02 02:33:55;;;;;;;10.07;8.93;;;;;;;8.18;88.41;96904.66;4912065;29;20669;-85
2024/02/02 02:36:22;;;;;;;9.97;8.90;;;;;;;8.21;88.08;96906.97;4915918;29;20204;-85
2024/02/02 02:38:51;;;;;;;9.97;8.60;;;;;;;8.18;87.47;96899.53;4920030;29;20226;-86
2024/02/02 02:41:17;;;;;;;11.90;9.20;;;;;;;8.13;87.33;96893.97;4918792;29;20596;-84
2024/02/02 02:43:44;;;;;;;10.10;9.10;;;;;;;8.09;87.06;96885.72;4915983;29;20212;-85
2024/02/02 02:46:10;;;;;;;10.03;8.93;;;;;;;8.10;87.71;96899.34;4919535;29;20225;-85
2024/02/02 02:48:37;;;;;;;11.33;8.27;;;;;;;8.12;87.59;96900.84;4918918;29;20611;-85
2024/02/02 02:51:04;;;;;;;12.10;8.80;;;;;;;8.13;87.04;96886.28;4918810;29;20256;-84
2024/02/02 02:53:31;;;;;;;11.40;8.27;;;;;;;8.12;86.10;96864.13;4919157;29;20218;-86
2024/02/02 02:55:59;;;;;;;12.53;8.73;;;;;;;8.10;85.82;96856.56;4918793;29;20231;-86
2024/02/02 02:58:25;;;;;;;10.13;8.47;;;;;;;8.08;85.77;96862.78;4917180;29;20234;-85
2024/02/02 03:00:54;;;;;;;9.23;8.27;;;;;;;8.07;86.10;96867.09;4918326;29;20284;-83
2024/02/02 03:03:20;;;;;;;10.13;8.67;;;;;;;8.04;86.20;96874.22;4917788;29;20237;-85
2024/02/02 03:05:46;;;;;;;11.30;9.47;;;;;;;8.03;87.08;96893.94;4919787;29;20202;-85
2024/02/02 03:08:13;;;;;;;10.27;8.90;;;;;;;8.05;87.12;96898.94;4919391;29;20206;-85
2024/02/02 03:10:41;;;;;;;12.07;8.93;;;;;;;7.96;88.05;96913.34;4919309;29;20240;-84
2024/02/02 03:13:09;;;;;;;11.13;9.30;;;;;;;7.91;89.84;96944.47;4918463;29;20206;-83
2024/02/02 03:15:36;;;;;;;10.30;9.20;;;;;;;8.01;89.07;96938.59;4917808;29;20209;-84
2024/02/02 03:18:02;;;;;;;9.87;8.40;;;;;;;8.02;88.24;96912.84;4917546;29;20238;-86
2024/02/02 03:20:29;;;;;;;12.97;9.13;;;;;;;8.05;87.91;96906.63;4918155;29;20238;-84
2024/02/02 03:22:56;;;;;;;11.00;8.97;;;;;;;8.06;87.68;96909.06;4923035;29;20206;-84
2024/02/02 03:25:23;;;;;;;10.33;8.87;;;;;;;8.02;87.90;96901.75;4918261;29;20212;-86
2024/02/02 03:27:49;;;;;;;11.67;9.63;;;;;;;8.00;88.09;96904.44;4917980;29;20213;-86
2024/02/02 03:30:17;;;;;;;10.80;9.70;;;;;;;7.97;88.12;96908.06;4916895;29;20230;-85
2024/02/02 03:32:44;;;;;;;10.77;9.53;;;;;;;7.90;88.47;96901.00;4917331;29;20210;-85
2024/02/02 03:35:11;;;;;;;13.97;9.97;;;;;;;7.90;88.63;96908.69;4917838;29;20202;-86
2024/02/02 03:37:37;;;;;;;10.90;9.80;;;;;;;7.88;88.67;96913.19;4918409;29;20676;-86
2024/02/02 03:40:05;;;;;;;12.03;9.87;;;;;;;7.86;89.15;96926.13;4917601;29;20226;-85
2024/02/02 03:42:31;;;;;;;12.97;10.00;;;;;;;7.76;89.66;96943.19;4917368;29;20202;-85
2024/02/02 03:44:58;;;;;;;12.80;10.20;;;;;;;7.76;90.55;96963.69;4919229;29;20591;-86
2024/02/02 03:47:26;;;;;;;11.90;10.70;;;;;;;7.78;90.39;96958.44;4916404;29;20788;-85
2024/02/02 03:49:52;;;;;;;13.17;10.70;;;;;;;7.83;90.63;96957.13;4917032;29;20226;-85
2024/02/02 03:52:22;;;;;;;12.70;10.07;;;;;;;7.78;91.08;96969.50;4917868;29;20198;-84
2024/02/02 03:54:49;;;;;;;12.77;10.70;;;;;;;7.80;91.22;96975.34;4918037;29;20206;-86
2024/02/02 03:57:15;;;;;;;12.30;11.00;;;;;;;7.82;91.43;96976.03;4917372;29;20210;-86
2024/02/02 03:59:42;;;;;;;13.97;10.87;;;;;;;7.82;91.61;96978.59;4918349;29;20715;-86
2024/02/02 04:02:08;;;;;;;13.23;10.93;;;;;;;7.83;91.70;96976.84;4917542;29;20205;-85
2024/02/02 04:04:36;;;;;;;14.53;11.00;;;;;;;7.86;91.53;96981.72;4916092;29;20237;-85
2024/02/02 04:07:02;;;;;;;12.07;10.87;;;;;;;7.84;91.52;96989.53;4917142;29;20202;-85
2024/02/02 04:09:29;;;;;;;12.53;11.33;;;;;;;7.86;91.45;96990.22;4917260;29;20226;-86
2024/02/02 04:11:55;;;;;;;12.27;10.93;;;;;;;7.80;92.05;96989.91;4916846;29;20684;-85
2024/02/02 04:14:22;;;;;;;13.17;11.10;;;;;;;7.82;92.02;96988.03;4898601;29;20202;-85
2024/02/02 04:16:48;;;;;;;11.07;9.97;;;;;;;7.82;92.78;97004.22;4900441;29;20305;-85
2024/02/02 04:19:19;;;;;;;11.27;10.17;;;;;;;7.79;92.74;97019.03;4915695;29;20230;-84
2024/02/02 04:21:47;;;;;;;12.30;11.10;;;;;;;7.82;93.15;97023.94;4917738;29;20234;-86
2024/02/02 04:24:13;;;;;;;11.80;10.60;;;;;;;7.78;93.42;97028.47;4917833;29;20205;-84
2024/02/02 04:26:39;;;;;;;12.20;10.90;;;;;;;7.81;93.65;97035.13;4917556;29;20206;-86
2024/02/02 04:29:06;;;;;;;12.67;11.30;;;;;;;7.87;93.49;97039.75;4917394;29;20892;-85
2024/02/02 04:31:32;;;;;;;11.77;10.53;;;;;;;7.91;93.45;97033.44;4917165;29;20225;-85
2024/02/02 04:33:59;;;;;;;11.97;10.77;;;;;;;7.89;93.01;97030.16;4916522;29;20210;-84
2024/02/02 04:36:25;;;;;;;16.17;10.87;;;;;;;7.89;93.41;97043.81;4914971;29;20857;-85
2024/02/02 04:38:53;;;;;;;13.53;11.27;;;;;;;7.86;93.68;97049.19;4916425;29;20210;-84
2024/02/02 04:41:19;;;;;;;12.20;10.67;;;;;;;7.87;93.88;97040.56;4916649;29;20345;-84
2024/02/02 04:43:46;;;;;;;12.23;11.00;;;;;;;7.87;93.83;97055.16;4917012;29;20703;-85
2024/02/02 04:46:12;;;;;;;12.40;11.13;;;;;;;7.83;94.64;97066.59;4917229;29;20207;-86
2024/02/02 04:48:39;;;;;;;12.93;11.37;;;;;;;7.85;94.96;97070.66;4917044;29;20225;-84
2024/02/02 04:51:05;;;;;;;12.03;10.80;;;;;;;7.90;94.63;97070.25;4914345;29;20763;-85
2024/02/02 04:53:32;;;;;;;13.37;11.97;;;;;;;7.92;94.77;97076.09;4915907;29;20217;-85
2024/02/02 04:55:59;;;;;;;12.67;11.37;;;;;;;7.92;95.25;97079.47;4916190;29;20206;-84
2024/02/02 04:58:26;;;;;;;12.20;11.00;;;;;;;7.96;94.47;97080.84;4901348;29;20756;-83
2024/02/02 05:00:53;;;;;;;13.30;11.67;;;;;;;7.96;95.01;97080.03;4898063;29;20237;-83
2024/02/02 05:03:19;;;;;;;12.43;11.17;;;;;;;7.94;95.05;97095.53;4908170;29;20238;-84
2024/02/02 05:05:45;;;;;;;12.67;11.37;;;;;;;7.94;95.28;97092.97;4917517;29;20838;-83
2024/02/02 05:08:12;;;;;;;13.03;11.63;;;;;;;7.93;95.43;97099.03;4915599;29;20206;-82
2024/02/02 05:10:39;;;;;;;12.83;11.53;;;;;;;7.89;95.79;97104.53;4916413;29;20226;-83
2024/02/02 05:13:06;;;;;;;12.20;10.53;;;;;;;7.93;95.75;97111.06;4916494;29;20202;-83
2024/02/02 05:15:33;;;;;;;12.53;11.23;;;;;;;7.93;95.58;97122.13;4917088;29;20221;-84
2024/02/02 05:17:59;;;;;;;12.83;11.40;;;;;;;7.94;95.71;97123.75;4916397;29;20214;-83
2024/02/02 05:20:26;;;;;;;13.03;11.70;;;;;;;7.91;95.79;97121.44;4916413;29;20234;-83
2024/02/02 05:22:52;;;;;;;12.77;11.47;;;;;;;7.95;95.72;97125.38;4927989;29;20202;-83
2024/02/02 05:25:19;;;;;;;12.73;11.13;;;;;;;7.96;95.84;97129.59;4914815;29;20221;-86
2024/02/02 05:27:45;;;;;;;12.93;11.63;;;;;;;7.98;95.92;97132.84;4915720;29;20223;-85
2024/02/02 05:30:14;;;;;;;12.57;11.37;;;;;;;7.95;95.89;97127.94;4912250;29;20225;-85
2024/02/02 05:32:40;;;;;;;12.27;10.93;;;;;;;8.05;99.49;97191.38;4921865;29;20632;-85
2024/02/02 05:35:07;;;;;;;13.20;10.87;;;;;;;8.06;96.42;97142.50;4922283;29;20676;-84
2024/02/02 05:37:34;;;;;;;12.73;11.40;;;;;;;8.08;95.59;97132.13;4919996;29;20240;-85
2024/02/02 05:40:00;;;;;;;11.73;10.40;;;;;;;8.04;95.21;97131.56;4924925;29;20225;-85
2024/02/02 05:42:26;;;;;;;11.97;10.77;;;;;;;7.99;95.60;97138.78;4924963;29;20207;-84
2024/02/02 05:44:53;;;;;;;12.23;10.93;;;;;;;8.00;95.73;97137.03;4921150;29;20205;-84
2024/02/02 05:47:21;;;;;;;11.53;10.20;;;;;;;7.97;95.76;97146.59;4919155;29;20213;-85
2024/02/02 05:49:47;;;;;;;12.00;10.70;;;;;;;7.91;95.97;97149.66;4920922;29;20203;-83
2024/02/02 05:52:14;;;;;;;12.10;10.90;;;;;;;7.90;96.19;97140.31;4916407;29;20202;-84
2024/02/02 05:54:40;;;;;;;11.77;10.57;;;;;;;7.87;96.38;97148.28;4920677;29;20758;-84
2024/02/02 05:57:06;;;;;;;11.23;10.13;;;;;;;7.89;96.26;97141.25;4917599;29;20212;-84
2024/02/02 05:59:35;;;;;;;12.93;10.80;;;;;;;7.82;96.66;97142.69;4918190;29;20316;-83
2024/02/02 06:02:01;;;;;;;11.67;10.47;;;;;;;7.83;96.60;97153.75;4917985;29;20289;-84
2024/02/02 06:04:29;;;;;;;11.27;10.17;;;;;;;7.85;96.69;97152.72;4917713;29;20206;-83
2024/02/02 06:06:57;;;;;;;12.50;10.73;;;;;;;7.80;96.76;97159.94;4916932;29;20210;-84
2024/02/02 06:09:25;;;;;;;10.77;9.67;;;;;;;7.81;96.62;97160.75;4918329;29;20206;-83
2024/02/02 06:11:52;;;;;;;11.73;10.20;;;;;;;7.75;96.80;97162.03;4916566;29;20230;-84
2024/02/02 06:14:25;;;;;;;11.37;10.27;;;;;;;7.79;97.10;97157.50;4917935;29;20202;-85
2024/02/02 06:16:53;;;;;;;11.07;9.63;;;;;;;7.82;96.90;97162.38;4918026;29;20278;-83
2024/02/02 06:19:19;;;;;;;11.57;9.67;;;;;;;7.80;96.36;97154.00;4916607;29;20201;-83
2024/02/02 06:21:47;;;;;;;11.30;10.10;;;;;;;7.85;96.13;97151.91;4917578;29;20226;-84
2024/02/02 06:24:14;;;;;;;13.23;10.00;;;;;;;7.78;95.92;97143.03;4917909;29;20632;-83
2024/02/02 06:26:40;;;;;;;10.57;9.47;;;;;;;7.80;96.04;97143.75;4917484;29;20198;-84
2024/02/02 06:29:09;;;;;;;24.60;21.63;;;;;;;7.83;95.83;97138.38;4917249;29;20202;-87
2024/02/02 06:31:35;;;;;;;11.00;9.90;;;;;;;7.81;95.48;97127.44;4919121;29;20214;-85
2024/02/02 06:34:04;;;;;;;9.90;8.90;;;;;;;7.86;94.82;97130.44;4914791;29;20210;-86
2024/02/02 06:36:31;;;;;;;9.83;8.83;;;;;;;7.83;94.86;97131.50;4913195;29;20206;-85
2024/02/02 06:39:00;;;;;;;9.20;8.33;;;;;;;7.84;94.54;97122.88;4913717;29;20210;-84
2024/02/02 06:41:29;;;;;;;10.63;9.03;;;;;;;7.80;94.48;97120.66;4913851;29;20248;-82
2024/02/02 06:43:56;;;;;;;9.33;8.40;;;;;;;7.81;94.39;97130.00;4915439;29;20213;-82
2024/02/02 06:46:24;;;;;;;9.43;8.53;;;;;;;7.78;95.45;97146.44;4924254;29;20201;-84
2024/02/02 06:48:50;;;;;;;9.40;8.50;;;;;;;7.80;95.03;97138.63;4926295;29;20292;-83
2024/02/02 06:51:19;;;;;;;10.13;8.53;;;;;;;7.81;95.02;97141.06;4920515;29;20231;-83
2024/02/02 06:53:50;;;;;;;9.50;8.50;;;;;;;7.78;94.75;97133.59;4924328;29;20209;-83
2024/02/02 06:56:34;;;;;;;8.93;8.03;;;;;;;7.79;94.72;97127.53;4920111;29;20708;-83
2024/02/02 06:59:02;;;;;;;8.97;8.10;;;;;;;7.72;94.54;97125.56;4918083;29;20204;-83
2024/02/02 07:01:29;;;;;;;9.87;8.07;;;;;;;7.63;94.85;97127.94;4915319;29;20222;-86
2024/02/02 07:03:56;;;;;;;8.90;8.00;;;;;;;7.65;95.33;97134.69;4914357;29;20744;-87
2024/02/02 07:06:22;;;;;;;8.83;7.90;;;;;;;7.62;95.12;97131.44;4913541;29;20710;-85
2024/02/02 07:08:49;;;;;;;10.13;8.00;;;;;;;7.70;94.81;97140.28;4912428;29;20296;-85
2024/02/02 07:11:58;;;;;;;9.17;8.27;;;;;;;7.74;94.50;97136.53;4943969;23;20240;-86
2024/02/02 07:14:53;;;;;;;12.97;11.67;;;;;;;7.75;94.32;97138.97;4932656;29;20233;-85
2024/02/02 07:17:31;;;;;;;8.57;7.77;;;;;;;7.73;93.88;97129.75;4931542;29;20210;-86
2024/02/02 07:20:03;;;;;;;8.87;7.97;;;;;;;7.77;94.27;97138.84;4929758;29;20228;-85
2024/02/02 07:22:37;;;;;;;8.43;7.63;;;;;;;7.81;93.83;97135.13;4896993;29;20291;-86
2024/02/02 07:25:06;;;;;;;8.43;7.63;;;;;;;7.80;93.21;97128.34;4913902;29;20202;-86
2024/02/02 07:27:49;;;;;;;7.90;7.03;;;;;;;7.68;92.92;97134.47;4917993;29;20210;-87
2024/02/02 07:30:49;;;;;;;7.67;6.87;;;;;;;7.69;92.91;97131.78;4916710;29;20222;-86
2024/02/02 07:33:27;;;;;;;7.30;6.60;;;;;;;7.72;92.71;97138.38;4899232;29;20784;-86
2024/02/02 07:35:58;;;;;;;8.13;7.23;;;;;;;7.76;92.49;97145.72;4899131;29;20673;-86
2024/02/02 07:38:48;;;;;;;7.83;7.03;;;;;;;7.65;92.32;97138.06;4918324;29;20206;-86
2024/02/02 07:41:16;;;;;;;7.70;6.93;;;;;;;7.61;92.34;97146.94;4915555;29;20326;-86
2024/02/02 07:43:44;;;;;;;7.80;7.00;;;;;;;7.60;92.57;97155.56;4917355;29;20214;-87
2024/02/02 07:46:11;;;;;;;8.17;6.60;;;;;;;7.66;92.47;97162.78;4909716;29;20206;-85
2024/02/02 07:48:39;;;;;;;7.67;6.93;;;;;;;7.81;92.05;97164.13;4913004;29;20198;-86
2024/02/02 07:51:06;;;;;;;7.77;6.83;;;;;;;7.77;91.42;97142.22;4917139;29;20245;-85
2024/02/02 07:53:33;;;;;;;7.50;6.70;;;;;;;7.66;91.12;97129.44;4917577;29;20580;-85
2024/02/02 07:55:59;;;;;;;8.10;6.23;;;;;;;7.67;91.49;97137.97;4915120;29;20206;-86
2024/02/02 07:58:26;;;;;;;6.43;5.83;;;;;;;7.62;91.78;97135.75;4917706;29;20211;-85
2024/02/02 08:00:54;;;;;;;7.10;6.40;;;;;;;7.69;91.82;97128.41;4915687;29;20237;-86
2024/02/02 08:03:20;;;;;;;7.13;6.43;;;;;;;7.77;91.30;97120.91;4917074;29;20237;-86
2024/02/02 08:05:47;;;;;;;7.60;6.80;;;;;;;7.78;90.72;97123.34;4914594;29;20707;-85
2024/02/02 08:08:14;;;;;;;8.97;8.07;;;;;;;7.83;90.42;97116.13;4916907;29;20340;-85
2024/02/02 08:10:43;;;;;;;7.67;6.87;;;;;;;7.85;90.09;97100.59;4916466;29;20238;-85
2024/02/02 08:13:13;;;;;;;6.30;5.70;;;;;;;7.87;90.03;97085.91;4915433;29;20776;-85
2024/02/02 08:15:43;;;;;;;6.50;5.90;;;;;;;7.86;89.59;97087.66;4914872;29;20206;-84
2024/02/02 08:18:11;;;;;;;6.80;6.10;;;;;;;7.74;89.68;97070.69;4917510;29;20210;-86
2024/02/02 08:20:38;;;;;;;7.50;6.20;;;;;;;7.83;89.95;97071.72;4915459;29;20240;-85
2024/02/02 08:23:05;;;;;;;6.27;5.63;;;;;;;7.91;89.93;97072.69;4916314;29;20232;-85
2024/02/02 08:25:31;;;;;;;6.80;6.10;;;;;;;7.85;89.42;97059.59;4916055;29;20214;-85
2024/02/02 08:31:06;;;;;;;5.90;5.30;;;;;;;7.97;87.66;97013.22;4900382;29;20315;-85
2024/02/02 08:33:34;;;;;;;6.23;5.63;;;;;;;8.04;87.55;97013.56;4911189;29;20591;-85
2024/02/02 08:36:00;;;;;;;6.33;5.40;;;;;;;8.07;86.75;96994.53;4916051;29;20210;-86
2024/02/02 08:38:27;;;;;;;6.87;6.20;;;;;;;8.16;86.77;97004.84;4914912;29;20202;-86
2024/02/02 08:40:59;;;;;;;8.90;7.37;;;;;;;8.15;86.07;96994.72;4915344;29;20262;-85
2024/02/02 08:43:26;;;;;;;5.70;5.10;;;;;;;8.18;85.87;96984.19;4916764;29;20199;-83
2024/02/02 08:46:20;;;;;;;6.30;5.33;;;;;;;8.23;85.84;96984.63;4913008;29;20206;-84
2024/02/02 08:48:49;;;;;;;6.60;5.50;;;;;;;8.20;85.41;96972.88;4918537;29;20249;-83
2024/02/02 08:51:51;;;;;;;6.83;4.90;;;;;;;8.11;85.42;96975.38;4913129;29;20709;-83
2024/02/02 08:54:37;;;;;;;6.03;5.43;;;;;;;8.15;86.39;96998.09;4899702;29;20206;-85
2024/02/02 08:57:25;;;;;;;5.80;5.30;;;;;;;8.24;85.98;96993.97;4898113;29;20199;-85
2024/02/02 08:59:53;;;;;;;7.13;5.47;;;;;;;8.22;85.42;96986.38;4911939;29;20253;-85
2024/02/02 09:02:42;;;;;;;5.40;4.90;;;;;;;8.27;85.04;96980.88;4909630;29;20226;-85
2024/02/02 09:05:18;;;;;;;5.43;4.93;;;;;;;8.29;84.30;96973.84;4917087;29;20636;-85
2024/02/02 09:07:50;;;;;;;5.47;4.83;;;;;;;8.31;85.29;96993.31;4917094;29;20202;-86
2024/02/02 09:11:01;;;;;;;5.33;4.83;;;;;;;8.36;84.20;96979.31;4917399;29;20238;-83
2024/02/02 09:13:29;;;;;;;5.67;5.07;;;;;;;8.38;83.57;96950.03;4898759;29;20708;-83
2024/02/02 09:15:56;;;;;;;5.87;5.20;;;;;;;8.44;83.15;96952.06;4906294;29;20254;-85
2024/02/02 09:18:33;;;;;;;5.63;4.70;;;;;;;8.41;83.05;96941.25;4917738;29;20206;-84
2024/02/02 09:21:03;;;;;;;4.77;4.37;;;;;;;8.50;82.65;96937.88;4916790;29;20344;-84
2024/02/02 09:23:33;;;;;;;4.97;4.47;;;;;;;8.51;82.35;96935.19;4915505;29;20692;-83
2024/02/02 09:26:01;;;;;;;4.63;4.23;;;;;;;8.60;82.36;96928.47;4915909;29;20765;-84
2024/02/02 09:28:39;;;;;;;5.17;4.67;;;;;;;8.59;81.63;96919.97;4908739;29;20608;-84
2024/02/02 09:31:07;;;;;;;4.67;4.27;;;;;;;8.60;81.89;96918.22;4898887;29;20214;-84
2024/02/02 09:33:52;;;;;;;4.77;4.30;;;;;;;8.61;81.58;96909.56;4915769;29;20656;-83
2024/02/02 09:36:25;;;;;;;5.00;4.27;;;;;;;8.55;81.81;96916.03;4900159;29;20454;-83
2024/02/02 09:38:56;;;;;;;4.80;4.20;;;;;;;8.53;81.64;96925.63;4905212;29;20207;-83
2024/02/02 09:42:04;;;;;;;4.80;4.20;;;;;;;8.45;82.14;96932.34;4915082;29;20291;-84
2024/02/02 09:44:43;;;;;;;4.83;4.33;;;;;;;8.43;82.95;96953.03;4902320;29;20290;-84
2024/02/02 09:47:23;;;;;;;4.77;4.27;;;;;;;8.40;83.66;96965.28;4919755;29;20210;-83
2024/02/02 09:50:04;;;;;;;4.53;4.13;;;;;;;8.44;84.06;96977.75;4920498;29;20244;-84
2024/02/02 09:52:39;;;;;;;5.03;4.53;;;;;;;8.45;84.26;96993.97;4918506;29;20617;-84
2024/02/02 09:55:14;;;;;;;4.90;4.30;;;;;;;8.49;84.27;96990.97;4917363;29;20213;-83
2024/02/02 09:57:49;;;;;;;4.80;4.30;;;;;;;8.55;84.29;96982.78;4918079;29;20208;-83
2024/02/02 10:00:25;;;;;;;5.10;4.60;;;;;;;8.62;84.34;96988.22;4915507;29;20230;-83
2024/02/02 10:03:14;;;;;;;5.90;5.30;;;;;;;8.60;84.61;96990.09;4922723;29;20224;-85
2024/02/02 10:05:50;;;;;;;5.27;4.77;;;;;;;8.70;84.90;97008.91;4918977;29;20242;-84
2024/02/02 10:08:37;;;;;;;5.33;4.83;;;;;;;8.66;85.61;97012.66;4918250;29;20221;-83
2024/02/02 10:11:18;;;;;;;5.10;4.60;;;;;;;8.71;86.29;97023.38;4916532;29;20623;-83
2024/02/02 10:13:58;;;;;;;5.37;4.87;;;;;;;8.69;86.71;97040.66;4916363;29;20213;-84
2024/02/02 10:16:39;;;;;;;4.70;4.30;;;;;;;8.63;86.55;97039.44;4913358;29;20206;-84
2024/02/02 10:19:24;;;;;;;5.80;5.20;;;;;;;8.65;87.07;97055.53;4907447;29;20244;-84
2024/02/02 10:21:59;;;;;;;5.50;4.90;;;;;;;8.73;87.53;97072.84;4917988;29;20226;-81
2024/02/02 10:24:45;;;;;;;5.70;5.10;;;;;;;8.74;87.52;97071.91;4918449;29;20695;-85
2024/02/02 10:27:32;;;;;;;5.40;4.90;;;;;;;8.68;86.71;97048.47;4910714;29;20199;-83
2024/02/02 10:30:07;;;;;;;5.33;4.83;;;;;;;8.67;86.50;97047.66;4920415;29;20246;-83
2024/02/02 10:32:53;;;;;;;4.53;4.03;;;;;;;8.73;87.32;97064.31;4912443;29;20199;-83
2024/02/02 10:35:32;;;;;;;4.37;3.97;;;;;;;8.55;85.30;97016.16;4900556;29;20215;-84
2024/02/02 10:38:09;;;;;;;4.20;3.80;;;;;;;8.55;84.65;97003.31;4916749;29;20210;-84
2024/02/02 10:40:43;;;;;;;4.63;4.00;;;;;;;8.47;83.77;96982.59;4917530;29;20221;-83
2024/02/02 10:43:31;;;;;;;4.43;3.90;;;;;;;8.46;84.66;96987.88;4912451;29;20206;-82
2024/02/02 10:46:13;;;;;;;3.87;3.50;;;;;;;8.38;84.06;96972.31;4917980;29;20249;-83
2024/02/02 10:49:01;;;;;;;5.30;3.70;;;;;;;8.45;85.32;96994.78;4917311;29;20369;-85
2024/02/02 10:51:36;;;;;;;4.40;4.00;;;;;;;8.54;86.32;97021.41;4898107;29;20234;-82
2024/02/02 10:54:15;;;;;;;3.97;3.47;;;;;;;8.62;86.25;97021.59;4916864;29;20236;-83
2024/02/02 10:56:56;;;;;;;4.03;3.63;;;;;;;8.70;86.52;97018.34;4915713;29;20213;-84
2024/02/02 10:59:34;;;;;;;4.27;3.87;;;;;;;8.78;86.22;97021.09;4916628;29;20209;-84
2024/02/02 11:02:12;;;;;;;4.83;4.43;;;;;;;8.78;85.88;97001.38;4921363;29;20222;-83
2024/02/02 11:04:57;;;;;;;6.77;4.10;;;;;;;8.60;86.24;97013.19;4922186;29;20679;-85
2024/02/02 11:07:28;;;;;;;4.47;4.07;;;;;;;8.51;85.82;97003.69;4919995;29;20656;-82
2024/02/02 11:09:57;;;;;;;4.20;3.80;;;;;;;8.47;86.16;96997.19;4917704;29;20210;-84
2024/02/02 11:12:36;;;;;;;4.23;3.83;;;;;;;8.38;86.82;97006.47;4904560;29;20198;-83
2024/02/02 11:15:18;;;;;;;3.50;3.20;;;;;;;8.36;86.67;97002.41;4900971;29;20261;-83
2024/02/02 11:17:55;;;;;;;3.93;3.57;;;;;;;8.34;86.98;97011.97;4907599;29;20209;-84
2024/02/02 11:20:34;;;;;;;4.23;3.53;;;;;;;8.34;86.94;96999.97;4920508;29;20218;-83
2024/02/02 11:23:12;;;;;;;3.83;3.30;;;;;;;8.36;87.24;97016.06;4915204;29;20707;-82
2024/02/02 11:25:47;;;;;;;4.17;3.27;;;;;;;8.33;87.08;97021.44;4914415;29;20207;-83
2024/02/02 11:28:19;;;;;;;3.67;3.37;;;;;;;8.41;88.44;97037.03;4918786;29;20671;-83
2024/02/02 11:30:57;;;;;;;3.80;3.50;;;;;;;8.46;88.38;97039.22;4930891;29;20222;-83
2024/02/02 11:33:39;;;;;;;3.50;3.07;;;;;;;8.56;88.89;97048.56;4907837;29;20589;-83
2024/02/02 11:36:19;;;;;;;4.00;3.70;;;;;;;8.56;88.16;97020.34;4912225;29;20205;-83
2024/02/02 11:38:54;;;;;;;4.00;3.63;;;;;;;8.47;88.43;97020.28;4916814;29;20293;-84
2024/02/02 11:41:26;;;;;;;4.20;3.33;;;;;;;8.47;88.18;97007.44;4916431;29;20265;-83
2024/02/02 11:43:55;;;;;;;4.37;3.40;;;;;;;8.38;87.70;96985.94;4915243;29;20202;-82
2024/02/02 11:46:26;;;;;;;3.47;3.17;;;;;;;8.37;87.67;96973.25;4919299;29;20208;-83
2024/02/02 11:49:05;;;;;;;3.20;3.00;;;;;;;8.49;87.51;96964.50;4918136;29;20704;-83
2024/02/02 11:51:33;;;;;;;3.20;2.63;;;;;;;8.46;88.01;96980.19;4918783;29;20313;-83
2024/02/02 11:54:03;;;;;;;3.07;2.77;;;;;;;8.59;89.43;97012.38;4904873;29;20206;-83